Time;durP1;ratioP1;P1;durP2;ratioP2;P2;SDS_P1;SDS_P2;PMS_P1;PMS_P2;Temp;Humidity;BMP_temperature;BMP_pressure;BME280_temperature;BME280_humidity;BME280_pressure;Samples;Min_cycle;Max_cycle;Signal;HPM_P1;HPM_P2
2021/07/31 00:01:51;;;;;;;4.88;2.13;;;25.40;60.00;;;;;;6225248;28;20084;-73
2021/07/31 00:04:52;;;;;;;3.50;2.30;;;25.40;60.30;;;;;;6241439;28;20038;-74
2021/07/31 00:07:53;;;;;;;3.63;2.28;;;25.30;60.60;;;;;;6226223;28;20376;-73
2021/07/31 00:10:54;;;;;;;5.60;2.30;;;25.20;60.80;;;;;;6241611;28;20038;-74
2021/07/31 00:13:55;;;;;;;3.47;1.83;;;25.20;61.20;;;;;;6236056;28;20378;-73
2021/07/31 00:16:57;;;;;;;4.53;2.40;;;25.00;61.40;;;;;;6224082;28;20116;-74
2021/07/31 00:19:58;;;;;;;5.55;1.83;;;25.00;61.70;;;;;;6235382;28;20053;-74
2021/07/31 00:23:00;;;;;;;2.80;1.92;;;25.00;61.80;;;;;;6229399;28;20034;-74
2021/07/31 00:26:01;;;;;;;6.05;2.33;;;25.00;61.80;;;;;;6223906;28;20030;-74
2021/07/31 00:29:02;;;;;;;3.55;1.98;;;25.00;61.80;;;;;;6241384;28;20369;-73
2021/07/31 00:32:03;;;;;;;3.75;2.28;;;25.00;61.70;;;;;;6236812;28;20033;-73
2021/07/31 00:35:04;;;;;;;3.10;2.05;;;25.00;61.60;;;;;;6225244;28;20034;-74
2021/07/31 00:38:06;;;;;;;4.30;2.28;;;25.00;61.80;;;;;;6241273;28;20037;-74
2021/07/31 00:41:07;;;;;;;4.93;2.38;;;25.00;61.90;;;;;;6240888;28;20045;-74
2021/07/31 00:44:08;;;;;;;5.65;2.70;;;25.00;61.90;;;;;;6241221;28;20455;-74
2021/07/31 00:47:10;;;;;;;5.97;2.42;;;25.00;61.90;;;;;;6241206;28;20061;-73
2021/07/31 00:50:12;;;;;;;3.80;2.13;;;25.00;61.90;;;;;;6240872;28;20030;-75
2021/07/31 00:53:13;;;;;;;3.40;2.03;;;25.00;62.00;;;;;;6240981;28;20030;-75
2021/07/31 00:56:15;;;;;;;2.88;1.58;;;25.00;61.90;;;;;;6224104;28;20026;-75
2021/07/31 00:59:17;;;;;;;3.47;2.20;;;25.00;61.90;;;;;;6240267;28;20052;-75
2021/07/31 01:02:18;;;;;;;3.22;2.40;;;25.00;61.90;;;;;;6240341;28;20038;-75
2021/07/31 01:05:20;;;;;;;6.05;3.03;;;25.00;61.90;;;;;;6225806;28;20038;-75
2021/07/31 01:08:22;;;;;;;4.10;2.47;;;25.00;62.10;;;;;;6240443;28;20045;-75
2021/07/31 01:11:23;;;;;;;4.28;2.47;;;25.00;62.30;;;;;;6240493;28;20450;-75
2021/07/31 01:14:27;;;;;;;7.93;2.50;;;25.00;62.60;;;;;;6240219;28;20038;-75
2021/07/31 01:17:29;;;;;;;4.35;2.80;;;25.00;62.70;;;;;;6223819;28;20052;-75
2021/07/31 01:20:31;;;;;;;4.07;2.67;;;25.00;62.90;;;;;;6240160;28;20435;-75
2021/07/31 01:23:37;;;;;;;6.45;2.70;;;25.00;62.90;;;;;;6240532;28;20041;-75
2021/07/31 01:26:56;;;;;;;6.82;2.72;;;25.00;62.90;;;;;;6224834;28;20042;-74
2021/07/31 01:29:58;;;;;;;4.25;2.47;;;25.00;63.00;;;;;;6223344;28;20053;-74
2021/07/31 01:33:00;;;;;;;4.60;2.63;;;25.00;62.90;;;;;;6239664;28;20048;-75
2021/07/31 01:36:01;;;;;;;4.53;2.90;;;25.00;63.10;;;;;;6239543;28;20045;-75
2021/07/31 01:39:12;;;;;;;5.07;2.50;;;25.00;63.20;;;;;;6239335;28;20052;-74
2021/07/31 01:42:14;;;;;;;4.03;2.58;;;25.00;63.10;;;;;;6223173;28;20045;-75
2021/07/31 01:45:15;;;;;;;3.53;2.50;;;25.00;63.20;;;;;;6223308;28;20080;-75
2021/07/31 01:48:17;;;;;;;4.15;2.88;;;25.10;63.30;;;;;;6239383;28;20061;-74
2021/07/31 01:51:19;;;;;;;5.35;2.90;;;25.10;63.40;;;;;;6239411;28;20042;-75
2021/07/31 01:54:20;;;;;;;6.07;3.00;;;25.10;63.40;;;;;;6240256;28;20340;-75
2021/07/31 01:57:22;;;;;;;7.85;2.80;;;25.10;63.50;;;;;;6239110;28;20046;-75
2021/07/31 02:00:42;;;;;;;5.90;2.83;;;25.10;63.50;;;;;;6223204;28;20121;-75
2021/07/31 02:03:47;;;;;;;5.22;3.15;;;25.10;63.60;;;;;;6223847;28;20529;-75
2021/07/31 02:07:01;;;;;;;6.18;3.35;;;25.00;63.50;;;;;;6224523;28;20336;-75
2021/07/31 02:10:03;;;;;;;5.47;3.50;;;24.90;63.40;;;;;;6239277;28;20471;-74
2021/07/31 02:13:05;;;;;;;7.63;3.00;;;24.90;63.40;;;;;;6239319;28;20049;-75
2021/07/31 02:16:08;;;;;;;7.13;2.97;;;24.90;63.30;;;;;;6222938;28;20068;-75
2021/07/31 02:19:10;;;;;;;7.43;3.72;;;24.90;63.40;;;;;;6222846;28;20046;-74
2021/07/31 02:22:21;;;;;;;3.85;2.90;;;24.80;63.20;;;;;;6238830;28;20038;-75
2021/07/31 02:25:51;;;;;;;4.80;2.95;;;24.80;63.40;;;;;;6168519;28;20043;-75
2021/07/31 02:29:12;;;;;;;5.40;2.97;;;24.70;63.30;;;;;;6165806;28;20049;-75
2021/07/31 02:32:15;;;;;;;8.60;3.35;;;24.70;63.50;;;;;;6169066;28;20068;-75
2021/07/31 02:35:17;;;;;;;5.80;3.40;;;24.70;63.60;;;;;;6168802;28;20046;-74
2021/07/31 02:38:48;;;;;;;5.25;3.17;;;24.70;63.60;;;;;;6120421;29;20134;-75
2021/07/31 02:41:49;;;;;;;5.65;3.17;;;24.70;63.60;;;;;;6121417;29;20116;-75
2021/07/31 02:44:50;;;;;;;9.60;3.03;;;24.60;63.70;;;;;;6105499;29;20032;-74
2021/07/31 02:47:59;;;;;;;5.22;3.33;;;24.60;63.70;;;;;;6121414;29;20075;-75
2021/07/31 02:51:03;;;;;;;4.93;3.10;;;24.60;63.80;;;;;;6126542;29;20084;-75
2021/07/31 02:54:24;;;;;;;5.70;3.28;;;24.60;63.80;;;;;;6125823;29;20498;-75
2021/07/31 02:57:25;;;;;;;4.50;2.88;;;24.60;63.80;;;;;;6125614;29;20043;-75
2021/07/31 03:00:27;;;;;;;4.25;2.70;;;24.60;63.80;;;;;;6108695;29;20035;-74
2021/07/31 03:03:28;;;;;;;3.88;2.65;;;24.60;63.70;;;;;;6125843;29;20377;-74
2021/07/31 03:06:29;;;;;;;12.32;3.13;;;24.60;63.60;;;;;;6126487;29;20051;-75
2021/07/31 03:09:32;;;;;;;5.68;2.92;;;24.50;63.70;;;;;;6125728;29;20494;-75
2021/07/31 03:12:34;;;;;;;4.90;2.92;;;24.50;63.90;;;;;;6125967;29;20454;-74
2021/07/31 03:15:36;;;;;;;5.40;3.20;;;24.50;64.30;;;;;;6198563;28;20042;-75
2021/07/31 03:18:37;;;;;;;4.85;3.13;;;24.50;64.70;;;;;;6239629;28;20053;-75
2021/07/31 03:21:43;;;;;;;4.60;2.63;;;24.50;64.90;;;;;;6239484;28;20347;-74
2021/07/31 03:24:57;;;;;;;3.78;2.78;;;24.40;64.80;;;;;;6223950;28;20100;-75
2021/07/31 03:28:00;;;;;;;11.77;3.15;;;24.50;65.90;;;;;;6240563;28;20048;-75
2021/07/31 03:31:08;;;;;;;6.18;3.42;;;24.40;65.00;;;;;;6239004;28;20134;-75
2021/07/31 03:34:10;;;;;;;9.30;3.00;;;24.40;65.00;;;;;;6240527;28;20044;-74
2021/07/31 03:37:12;;;;;;;4.47;2.70;;;24.40;65.00;;;;;;6223540;28;20038;-75
2021/07/31 03:40:13;;;;;;;4.07;2.60;;;24.40;65.20;;;;;;6225895;28;20034;-74
2021/07/31 03:43:15;;;;;;;6.60;2.80;;;24.40;65.20;;;;;;6239967;28;20032;-74
2021/07/31 03:46:16;;;;;;;2.97;2.35;;;24.40;65.20;;;;;;6224558;28;20034;-75
2021/07/31 03:49:18;;;;;;;6.63;2.97;;;24.40;65.20;;;;;;6222500;28;20040;-75
2021/07/31 03:52:22;;;;;;;4.18;2.40;;;24.40;65.40;;;;;;6239823;28;20030;-75
2021/07/31 03:55:29;;;;;;;13.45;2.95;;;24.40;65.50;;;;;;6224426;28;20033;-74
2021/07/31 03:58:30;;;;;;;5.47;2.95;;;24.40;65.60;;;;;;6225313;28;20355;-74
2021/07/31 04:01:31;;;;;;;5.07;2.63;;;24.40;65.40;;;;;;6223814;28;20420;-74
2021/07/31 04:04:38;;;;;;;5.05;2.80;;;24.30;65.30;;;;;;6241421;28;20092;-74
2021/07/31 04:07:41;;;;;;;2.97;2.35;;;24.40;65.40;;;;;;6240700;28;20442;-74
2021/07/31 04:11:11;;;;;;;7.07;2.83;;;24.30;65.30;;;;;;6226721;28;20049;-74
2021/07/31 04:14:31;;;;;;;5.80;3.00;;;24.30;65.30;;;;;;6226828;28;20046;-74
2021/07/31 04:17:44;;;;;;;7.22;2.88;;;24.30;65.20;;;;;;6227693;28;20045;-74
2021/07/31 04:20:45;;;;;;;4.85;3.15;;;24.30;65.20;;;;;;6240549;28;20037;-74
2021/07/31 04:23:46;;;;;;;5.18;2.97;;;24.30;65.20;;;;;;6238068;28;25080;-74
2021/07/31 04:26:47;;;;;;;7.85;3.70;;;24.20;65.10;;;;;;6222628;28;20056;-74
2021/07/31 04:29:48;;;;;;;10.38;3.40;;;24.20;65.00;;;;;;6238065;28;20104;-75
2021/07/31 04:32:49;;;;;;;5.25;3.85;;;24.10;64.80;;;;;;6237704;28;20113;-75
2021/07/31 04:35:59;;;;;;;7.55;2.90;;;24.10;64.70;;;;;;6223030;28;20072;-75
2021/07/31 04:39:01;;;;;;;5.15;3.00;;;24.10;64.60;;;;;;6237457;28;20138;-75
2021/07/31 04:42:02;;;;;;;9.13;2.90;;;23.70;64.00;;;;;;6221352;28;20037;-75
2021/07/31 04:45:03;;;;;;;7.82;2.95;;;24.10;64.20;;;;;;6237924;28;20048;-75
2021/07/31 04:48:04;;;;;;;4.13;2.70;;;24.10;64.00;;;;;;6222580;28;20451;-75
2021/07/31 04:51:06;;;;;;;5.15;3.30;;;24.10;63.80;;;;;;6219060;28;20030;-74
2021/07/31 04:54:07;;;;;;;6.85;3.53;;;24.10;63.80;;;;;;6220937;28;20116;-75
2021/07/31 04:57:09;;;;;;;6.57;3.30;;;24.10;63.90;;;;;;6236398;28;20037;-75
2021/07/31 05:00:11;;;;;;;9.30;2.97;;;24.10;63.90;;;;;;6220471;28;20340;-75
2021/07/31 05:03:13;;;;;;;4.65;3.03;;;24.20;64.00;;;;;;6220767;28;20115;-75
2021/07/31 05:06:14;;;;;;;3.63;2.42;;;24.20;64.70;;;;;;6221428;28;20460;-75
2021/07/31 05:09:15;;;;;;;5.53;2.97;;;24.20;63.90;;;;;;6222074;28;20045;-75
2021/07/31 05:12:16;;;;;;;8.38;3.20;;;24.10;63.70;;;;;;6236027;28;20104;-75
2021/07/31 05:15:18;;;;;;;5.53;3.20;;;24.20;63.80;;;;;;6237011;28;20034;-77
2021/07/31 05:18:19;;;;;;;8.68;3.58;;;24.20;63.70;;;;;;6221656;28;20042;-74
2021/07/31 05:21:20;;;;;;;7.25;3.63;;;24.10;63.50;;;;;;6221618;28;20064;-74
2021/07/31 05:24:23;;;;;;;5.00;3.10;;;24.10;63.40;;;;;;6219020;28;20541;-74
2021/07/31 05:27:24;;;;;;;6.40;3.58;;;24.20;63.40;;;;;;6222255;28;20026;-74
2021/07/31 05:30:25;;;;;;;8.95;3.33;;;24.20;63.20;;;;;;6220171;28;20037;-74
2021/07/31 05:33:26;;;;;;;4.90;2.78;;;24.30;63.00;;;;;;6236467;28;20034;-74
2021/07/31 05:36:28;;;;;;;6.28;3.30;;;24.30;62.80;;;;;;6236994;28;20030;-74
2021/07/31 05:39:33;;;;;;;9.85;3.45;;;24.30;62.50;;;;;;6221168;28;20048;-75
2021/07/31 05:42:34;;;;;;;4.55;2.90;;;24.40;62.30;;;;;;6221026;28;20045;-75
2021/07/31 05:45:35;;;;;;;7.97;3.47;;;24.50;62.10;;;;;;6219868;28;20092;-75
2021/07/31 05:48:36;;;;;;;3.97;2.95;;;24.50;61.80;;;;;;6236037;28;20033;-75
2021/07/31 05:51:37;;;;;;;8.15;3.35;;;24.50;61.50;;;;;;6228176;28;20359;-75
2021/07/31 05:54:38;;;;;;;5.30;3.25;;;24.60;61.30;;;;;;6221596;28;20030;-75
2021/07/31 05:57:39;;;;;;;7.60;2.80;;;24.70;61.10;;;;;;6220027;28;20463;-75
2021/07/31 06:00:40;;;;;;;7.18;3.13;;;24.70;61.20;;;;;;6220866;28;20351;-75
2021/07/31 06:03:41;;;;;;;5.22;3.05;;;24.70;60.90;;;;;;6236988;28;20041;-75
2021/07/31 06:06:42;;;;;;;11.70;3.58;;;24.70;60.70;;;;;;6237678;28;20446;-75
2021/07/31 06:09:55;;;;;;;6.65;3.13;;;24.80;60.30;;;;;;6237010;28;20038;-75
2021/07/31 06:12:56;;;;;;;7.85;3.78;;;24.80;60.00;;;;;;6236470;28;20123;-75
2021/07/31 06:15:57;;;;;;;4.68;3.05;;;24.90;59.80;;;;;;6221291;28;20447;-75
2021/07/31 06:18:59;;;;;;;11.60;3.35;;;24.80;59.40;;;;;;6223683;28;20132;-75
2021/07/31 06:22:02;;;;;;;6.55;3.38;;;25.00;59.30;;;;;;6220391;28;20577;-75
2021/07/31 06:25:03;;;;;;;5.57;2.78;;;25.00;59.00;;;;;;6220592;28;20156;-75
2021/07/31 06:28:04;;;;;;;9.02;3.65;;;25.10;58.80;;;;;;6235742;28;20045;-75
2021/07/31 06:31:08;;;;;;;4.88;3.20;;;25.10;58.50;;;;;;6220303;28;20038;-75
2021/07/31 06:34:09;;;;;;;8.05;3.22;;;25.20;58.40;;;;;;6237626;28;20030;-75
2021/07/31 06:37:10;;;;;;;9.73;2.95;;;25.30;58.30;;;;;;6221390;28;20030;-75
2021/07/31 06:40:12;;;;;;;5.78;3.30;;;25.30;58.00;;;;;;6220049;28;20026;-75
2021/07/31 06:43:13;;;;;;;5.93;3.03;;;25.40;57.70;;;;;;6236005;28;20030;-75
2021/07/31 06:46:16;;;;;;;7.30;3.22;;;25.40;57.40;;;;;;6221426;28;20378;-75
2021/07/31 06:49:17;;;;;;;5.05;2.97;;;25.40;57.30;;;;;;6237841;28;20105;-76
2021/07/31 06:52:18;;;;;;;4.68;3.05;;;25.40;57.10;;;;;;6222463;28;20034;-76
2021/07/31 06:55:19;;;;;;;6.53;3.20;;;25.50;57.20;;;;;;6237446;28;20100;-75
2021/07/31 06:58:20;;;;;;;8.73;3.35;;;25.50;57.00;;;;;;6236823;28;20416;-75
2021/07/31 07:01:22;;;;;;;5.05;3.17;;;25.60;56.80;;;;;;6237176;28;20044;-75
2021/07/31 07:04:23;;;;;;;8.90;3.35;;;25.60;56.60;;;;;;6221662;28;20466;-75
2021/07/31 07:07:24;;;;;;;4.65;3.33;;;25.00;56.00;;;;;;6237720;28;20050;-74
2021/07/31 07:10:25;;;;;;;6.32;2.85;;;25.70;56.10;;;;;;6220774;28;20435;-73
2021/07/31 07:13:26;;;;;;;5.30;2.88;;;25.80;56.00;;;;;;6237631;28;20073;-74
2021/07/31 07:16:27;;;;;;;5.13;3.03;;;25.80;55.90;;;;;;6220276;28;20044;-75
2021/07/31 07:19:28;;;;;;;5.07;2.90;;;25.80;55.90;;;;;;6221020;28;20498;-75
2021/07/31 07:22:29;;;;;;;7.65;3.03;;;25.90;55.80;;;;;;6220398;28;20037;-75
2021/07/31 07:25:30;;;;;;;4.28;2.72;;;25.90;55.80;;;;;;6237090;28;20095;-76
2021/07/31 07:28:31;;;;;;;6.03;3.20;;;25.90;55.60;;;;;;6220861;28;20459;-76
2021/07/31 07:31:32;;;;;;;4.97;3.28;;;25.90;55.40;;;;;;6220484;28;20038;-77
2021/07/31 07:34:38;;;;;;;9.32;3.47;;;26.00;55.40;;;;;;6227979;28;20106;-76
2021/07/31 07:37:38;;;;;;;5.80;3.47;;;26.10;55.20;;;;;;6224991;28;20478;-77
2021/07/31 07:40:39;;;;;;;6.32;3.75;;;26.20;54.80;;;;;;6241008;28;20065;-76
2021/07/31 07:43:41;;;;;;;7.18;3.08;;;26.30;54.70;;;;;;6239816;28;20041;-75
2021/07/31 07:46:43;;;;;;;7.00;3.13;;;26.30;54.60;;;;;;6224298;28;20062;-76
2021/07/31 07:49:44;;;;;;;4.63;3.15;;;26.30;54.40;;;;;;6240788;28;20033;-76
2021/07/31 07:52:45;;;;;;;7.40;3.80;;;26.40;54.20;;;;;;6240551;28;20458;-75
2021/07/31 07:55:46;;;;;;;7.10;3.42;;;26.50;54.00;;;;;;6225347;28;20041;-75
2021/07/31 07:58:53;;;;;;;8.43;3.78;;;26.60;53.80;;;;;;6224418;28;20470;-74
2021/07/31 08:01:55;;;;;;;8.43;3.25;;;26.60;53.50;;;;;;6225030;28;20044;-74
2021/07/31 08:04:56;;;;;;;5.75;3.03;;;26.80;53.30;;;;;;6225031;28;20095;-75
2021/07/31 08:07:57;;;;;;;6.65;3.30;;;26.90;53.10;;;;;;6241802;28;20125;-75
2021/07/31 08:10:58;;;;;;;4.45;3.03;;;27.00;52.70;;;;;;6241464;28;20048;-74
2021/07/31 08:14:00;;;;;;;5.15;2.92;;;27.20;52.50;;;;;;6241337;28;20055;-74
2021/07/31 08:17:02;;;;;;;11.23;3.45;;;27.30;52.20;;;;;;6241610;28;20137;-75
2021/07/31 08:20:05;;;;;;;9.27;3.42;;;27.50;51.70;;;;;;6223111;28;20320;-74
2021/07/31 08:23:06;;;;;;;5.30;2.80;;;27.70;51.00;;;;;;6225961;28;20406;-75
2021/07/31 08:26:12;;;;;;;8.25;3.00;;;27.90;51.00;;;;;;6241011;28;20036;-75
2021/07/31 08:29:13;;;;;;;5.28;2.90;;;27.90;50.40;;;;;;6225770;28;20034;-75
2021/07/31 08:32:14;;;;;;;5.45;3.47;;;27.90;50.20;;;;;;6225882;28;20036;-75
2021/07/31 08:35:15;;;;;;;4.60;3.13;;;27.90;50.40;;;;;;6230996;28;20038;-75
2021/07/31 08:38:16;;;;;;;5.28;3.28;;;27.80;50.20;;;;;;6241302;28;20049;-74
2021/07/31 08:41:20;;;;;;;5.75;3.15;;;27.80;50.20;;;;;;6239937;28;20396;-75
2021/07/31 08:44:21;;;;;;;3.72;3.03;;;27.80;50.10;;;;;;6228094;28;20423;-76
2021/07/31 08:47:24;;;;;;;5.38;3.30;;;27.90;50.20;;;;;;6219898;28;20042;-74
2021/07/31 08:50:26;;;;;;;5.07;3.05;;;27.90;50.10;;;;;;6224614;28;20115;-77
2021/07/31 08:53:30;;;;;;;5.93;3.00;;;27.90;49.90;;;;;;6240585;28;20038;-74
2021/07/31 08:56:31;;;;;;;4.82;2.92;;;27.90;49.80;;;;;;6240505;28;20094;-77
2021/07/31 08:59:33;;;;;;;7.82;2.85;;;27.90;49.80;;;;;;6239673;28;20049;-76
2021/07/31 09:02:46;;;;;;;6.10;3.15;;;27.90;49.70;;;;;;6238587;28;20026;-76
2021/07/31 09:05:48;;;;;;;5.03;3.17;;;27.90;49.50;;;;;;6223828;28;20093;-74
2021/07/31 09:08:53;;;;;;;6.10;3.13;;;27.90;49.40;;;;;;6223898;28;20117;-77
2021/07/31 09:12:20;;;;;;;14.50;3.28;;;27.90;49.40;;;;;;6225591;28;20057;-74
2021/07/31 09:15:36;;;;;;;5.47;2.95;;;28.00;49.20;;;;;;6216556;28;20041;-74
2021/07/31 09:18:44;;;;;;;5.38;2.75;;;28.10;49.00;;;;;;6220706;28;20034;-74
2021/07/31 09:21:46;;;;;;;5.03;3.05;;;28.10;48.70;;;;;;6222013;28;20048;-74
2021/07/31 09:25:10;;;;;;;11.07;3.22;;;28.10;48.60;;;;;;6222005;28;20042;-75
2021/07/31 09:28:18;;;;;;;6.28;3.05;;;28.00;48.60;;;;;;6235497;28;20045;-75
2021/07/31 09:31:20;;;;;;;;;;;27.90;48.60;;;;;;6222398;28;20121;-74
2021/07/31 09:34:35;;;;;;;4.25;2.50;;;27.90;48.70;;;;;;6218851;28;19917;-75
2021/07/31 09:37:47;;;;;;;6.13;2.80;;;27.80;48.70;;;;;;6219328;28;20038;-75
2021/07/31 09:40:48;;;;;;;4.55;2.85;;;27.70;49.00;;;;;;6235113;28;20045;-76
2021/07/31 09:44:04;;;;;;;5.75;2.88;;;27.50;49.10;;;;;;6221627;28;20134;-76
2021/07/31 09:47:10;;;;;;;6.45;3.08;;;27.40;49.30;;;;;;6203879;28;20339;-76
2021/07/31 09:50:11;;;;;;;5.63;3.35;;;27.30;49.50;;;;;;6220023;28;20026;-77
2021/07/31 09:53:17;;;;;;;8.00;3.00;;;27.20;49.50;;;;;;6220943;28;20470;-75
2021/07/31 09:56:18;;;;;;;8.82;2.75;;;27.10;49.60;;;;;;6237793;28;20117;-76
2021/07/31 09:59:21;;;;;;;4.95;2.75;;;27.10;50.00;;;;;;6221303;28;20058;-76
2021/07/31 10:02:22;;;;;;;7.53;2.92;;;27.00;50.20;;;;;;6223954;28;20047;-74
2021/07/31 10:05:24;;;;;;;6.57;3.05;;;26.90;50.20;;;;;;6220999;28;20065;-74
2021/07/31 10:08:25;;;;;;;5.97;3.22;;;26.90;50.30;;;;;;6222387;28;20045;-74
2021/07/31 10:11:27;;;;;;;7.03;3.05;;;26.80;50.50;;;;;;6227954;28;20042;-74
2021/07/31 10:14:28;;;;;;;5.28;2.88;;;26.80;50.60;;;;;;6218219;28;20053;-77
2021/07/31 10:17:30;;;;;;;6.15;2.97;;;26.80;50.50;;;;;;6232882;28;20129;-76
2021/07/31 10:20:32;;;;;;;6.88;3.50;;;26.90;50.30;;;;;;6223236;28;20514;-76
2021/07/31 10:24:09;;;;;;;6.57;3.13;;;27.10;50.20;;;;;;6237830;28;20061;-75
2021/07/31 10:27:18;;;;;;;6.95;3.05;;;27.10;50.30;;;;;;6219805;28;20030;-75
2021/07/31 10:30:28;;;;;;;4.65;2.85;;;27.10;50.30;;;;;;6219578;28;20052;-75
2021/07/31 10:34:01;;;;;;;8.10;2.92;;;27.10;50.40;;;;;;6220657;28;20121;-76
2021/07/31 10:37:28;;;;;;;6.72;3.30;;;27.20;50.30;;;;;;6120436;29;20050;-74
2021/07/31 10:40:50;;;;;;;5.95;2.92;;;27.40;50.20;;;;;;6107161;29;20127;-75
2021/07/31 10:44:11;;;;;;;5.03;2.78;;;27.60;50.10;;;;;;6104979;29;20126;-77
2021/07/31 10:47:21;;;;;;;8.40;3.45;;;27.60;50.00;;;;;;6121367;29;20415;-76
2021/07/31 10:50:22;;;;;;;4.55;2.60;;;27.60;50.00;;;;;;6105858;29;20333;-75
2021/07/31 10:53:46;;;;;;;6.18;2.97;;;27.60;49.90;;;;;;6106021;29;20084;-75
2021/07/31 10:56:54;;;;;;;8.10;3.20;;;27.60;50.00;;;;;;6121186;29;20046;-76
2021/07/31 11:00:37;;;;;;;8.10;3.65;;;27.70;49.80;;;;;;6120898;29;20469;-75
2021/07/31 11:03:39;;;;;;;5.38;3.05;;;27.80;49.20;;;;;;6120920;29;20067;-76
2021/07/31 11:07:09;;;;;;;8.10;3.08;;;27.90;48.90;;;;;;6118792;29;20039;-75
2021/07/31 11:10:30;;;;;;;7.93;3.47;;;27.80;49.00;;;;;;6111733;29;20543;-75
2021/07/31 11:13:51;;;;;;;8.02;3.17;;;27.70;49.10;;;;;;6227230;28;20109;-75
2021/07/31 11:17:16;;;;;;;7.72;3.45;;;27.70;49.20;;;;;;6224680;28;20148;-75
2021/07/31 11:20:27;;;;;;;7.15;3.05;;;27.70;49.10;;;;;;6239311;28;20066;-75
2021/07/31 11:23:29;;;;;;;13.93;3.97;;;27.80;48.90;;;;;;6217811;28;20029;-75
2021/07/31 11:26:52;;;;;;;6.38;3.40;;;27.90;48.60;;;;;;6223150;28;20129;-75
2021/07/31 11:29:55;;;;;;;8.15;3.28;;;28.10;48.50;;;;;;6237344;28;20056;-75
2021/07/31 11:32:56;;;;;;;5.25;2.78;;;28.40;48.00;;;;;;6236669;28;20064;-75
2021/07/31 11:35:58;;;;;;;6.53;2.83;;;28.80;47.50;;;;;;6224379;28;20411;-75
2021/07/31 11:39:01;;;;;;;6.15;2.63;;;29.00;46.80;;;;;;6223587;28;20048;-75
2021/07/31 11:42:04;;;;;;;5.32;2.90;;;29.00;46.60;;;;;;6240787;28;20095;-75
2021/07/31 11:45:06;;;;;;;5.78;2.80;;;29.10;46.60;;;;;;6241938;28;20060;-75
2021/07/31 11:48:08;;;;;;;3.95;2.75;;;29.30;46.40;;;;;;6226852;28;20038;-75
2021/07/31 11:51:09;;;;;;;7.47;2.70;;;29.50;45.90;;;;;;6242541;28;20046;-75
2021/07/31 11:54:11;;;;;;;6.20;2.90;;;29.50;45.70;;;;;;6241668;28;20041;-76
2021/07/31 11:57:15;;;;;;;3.65;2.28;;;29.50;45.70;;;;;;6225020;28;20053;-75
2021/07/31 12:00:16;;;;;;;5.88;2.50;;;29.60;45.40;;;;;;6240118;28;20459;-75
2021/07/31 12:03:46;;;;;;;5.07;2.80;;;29.60;45.30;;;;;;6225603;28;20038;-75
2021/07/31 12:06:48;;;;;;;3.58;2.67;;;29.50;45.50;;;;;;6221010;28;20038;-75
2021/07/31 12:10:08;;;;;;;2.97;2.00;;;29.40;45.70;;;;;;6237415;28;20029;-75
2021/07/31 12:13:09;;;;;;;5.15;2.65;;;29.20;45.80;;;;;;6232669;28;20254;-76
2021/07/31 12:16:10;;;;;;;7.35;2.75;;;29.20;45.90;;;;;;6236563;28;20037;-75
2021/07/31 12:19:11;;;;;;;4.30;2.50;;;29.00;45.80;;;;;;6220580;28;20419;-75
2021/07/31 12:22:15;;;;;;;4.18;2.10;;;29.10;45.80;;;;;;6236878;28;20030;-74
2021/07/31 12:25:18;;;;;;;5.28;2.50;;;29.20;45.50;;;;;;6221855;28;20045;-76
2021/07/31 12:28:39;;;;;;;3.88;2.38;;;29.30;45.30;;;;;;6236869;28;20030;-75
2021/07/31 12:31:41;;;;;;;4.93;2.58;;;29.30;45.20;;;;;;6220449;28;20056;-74
2021/07/31 12:34:42;;;;;;;6.10;2.33;;;29.20;45.00;;;;;;6227233;28;20053;-76
2021/07/31 12:37:49;;;;;;;5.05;2.47;;;29.10;45.00;;;;;;6218863;28;20140;-75
2021/07/31 12:40:58;;;;;;;8.02;2.28;;;29.00;45.10;;;;;;6236876;28;20524;-75
2021/07/31 12:44:01;;;;;;;3.97;2.47;;;29.00;45.20;;;;;;6221218;28;20085;-74
2021/07/31 12:47:05;;;;;;;3.92;2.47;;;29.00;45.30;;;;;;6238317;28;20408;-76
2021/07/31 12:50:06;;;;;;;3.65;2.00;;;29.20;44.70;;;;;;6221670;28;20406;-75
2021/07/31 12:53:07;;;;;;;8.02;2.20;;;29.50;44.30;;;;;;6235873;28;20521;-75
2021/07/31 12:56:08;;;;;;;3.10;2.00;;;29.60;43.90;;;;;;6222466;28;20030;-74
2021/07/31 12:59:09;;;;;;;3.38;1.95;;;30.00;43.50;;;;;;6222906;28;20127;-75
2021/07/31 13:02:11;;;;;;;3.60;2.30;;;30.40;42.50;;;;;;6238509;28;20034;-75
2021/07/31 13:05:12;;;;;;;6.95;2.17;;;30.40;42.00;;;;;;6226857;28;20066;-74
2021/07/31 13:08:16;;;;;;;3.83;2.38;;;30.30;42.20;;;;;;6223708;28;20038;-76
2021/07/31 13:11:17;;;;;;;3.70;2.15;;;30.30;42.30;;;;;;6237385;28;20038;-74
2021/07/31 13:14:18;;;;;;;5.07;2.95;;;30.30;42.40;;;;;;6236702;28;20034;-74
2021/07/31 13:17:20;;;;;;;5.03;2.38;;;30.30;42.60;;;;;;6234066;28;20065;-75
2021/07/31 13:20:21;;;;;;;3.45;2.70;;;30.70;42.40;;;;;;6220208;28;20367;-75
2021/07/31 13:23:22;;;;;;;4.82;2.78;;;31.10;41.50;;;;;;6203140;28;20475;-75
2021/07/31 13:26:23;;;;;;;4.15;2.60;;;31.30;41.20;;;;;;6220649;28;20111;-73
2021/07/31 13:29:24;;;;;;;6.10;2.25;;;31.50;40.90;;;;;;6234531;28;20143;-74
2021/07/31 13:32:25;;;;;;;4.10;2.15;;;31.60;40.60;;;;;;6225063;28;20116;-75
2021/07/31 13:35:27;;;;;;;3.97;2.53;;;31.50;40.80;;;;;;6237354;28;20034;-75
2021/07/31 13:38:34;;;;;;;5.78;2.10;;;31.40;41.00;;;;;;6221004;28;20474;-75
2021/07/31 13:41:35;;;;;;;5.00;2.90;;;31.40;41.00;;;;;;6222361;28;20344;-75
2021/07/31 13:44:37;;;;;;;5.20;1.98;;;31.20;41.10;;;;;;6236504;28;20570;-74
2021/07/31 13:47:38;;;;;;;3.08;2.30;;;31.10;41.20;;;;;;6220444;28;20076;-75
2021/07/31 13:50:39;;;;;;;3.83;2.15;;;30.80;41.30;;;;;;6221037;28;20058;-75
2021/07/31 13:53:40;;;;;;;3.70;2.53;;;30.60;41.90;;;;;;6220203;28;20069;-75
2021/07/31 13:56:41;;;;;;;3.83;1.90;;;30.30;42.30;;;;;;6220882;28;20053;-75
2021/07/31 13:59:43;;;;;;;2.78;1.75;;;30.00;42.40;;;;;;6221509;28;20132;-75
2021/07/31 14:02:45;;;;;;;3.88;2.03;;;29.80;42.70;;;;;;6221014;28;20042;-75
2021/07/31 14:05:46;;;;;;;5.00;1.95;;;29.70;43.10;;;;;;6237840;28;20375;-75
2021/07/31 14:08:47;;;;;;;2.88;2.30;;;29.70;43.30;;;;;;6222227;28;20044;-75
2021/07/31 14:11:48;;;;;;;3.55;2.08;;;29.80;43.40;;;;;;6204475;28;20084;-75
2021/07/31 14:14:49;;;;;;;3.00;1.85;;;30.30;42.30;;;;;;6237398;28;20367;-75
2021/07/31 14:17:50;;;;;;;3.47;1.83;;;30.50;41.90;;;;;;6236976;28;20108;-75
2021/07/31 14:20:54;;;;;;;2.80;1.60;;;30.40;41.90;;;;;;6237251;28;20054;-75
2021/07/31 14:23:55;;;;;;;5.47;1.83;;;30.90;42.20;;;;;;6220388;28;20078;-74
2021/07/31 14:26:57;;;;;;;4.28;1.70;;;30.30;42.00;;;;;;6221739;28;20045;-74
2021/07/31 14:29:58;;;;;;;2.78;1.45;;;30.40;41.90;;;;;;6221128;28;20033;-74
2021/07/31 14:32:59;;;;;;;4.50;1.73;;;31.10;41.00;;;;;;6220379;28;20161;-74
2021/07/31 14:36:00;;;;;;;5.72;1.88;;;31.50;39.80;;;;;;6236997;28;20359;-75
2021/07/31 14:39:02;;;;;;;4.00;1.67;;;31.50;39.60;;;;;;6221121;28;20324;-75
2021/07/31 14:42:04;;;;;;;3.05;1.67;;;31.50;39.40;;;;;;6221145;28;20037;-74
2021/07/31 14:45:06;;;;;;;4.45;1.52;;;31.40;39.60;;;;;;6223980;28;20042;-74
2021/07/31 14:48:07;;;;;;;2.20;1.65;;;31.20;39.80;;;;;;6224245;28;20049;-74
2021/07/31 14:51:10;;;;;;;2.90;1.45;;;30.90;40.20;;;;;;6242014;28;20045;-75
2021/07/31 14:54:11;;;;;;;7.35;1.40;;;30.50;40.70;;;;;;6241729;28;20084;-74
2021/07/31 14:57:12;;;;;;;2.00;1.48;;;30.20;41.40;;;;;;6225850;28;20038;-75
2021/07/31 15:00:15;;;;;;;3.30;1.60;;;30.00;41.80;;;;;;6225242;28;20145;-75
2021/07/31 15:03:16;;;;;;;3.35;1.70;;;30.00;42.00;;;;;;6225802;28;20048;-74
2021/07/31 15:06:17;;;;;;;4.13;1.67;;;29.90;42.00;;;;;;6225649;28;20042;-75
2021/07/31 15:09:18;;;;;;;5.88;1.48;;;29.80;42.00;;;;;;6226220;28;20091;-75
2021/07/31 15:12:19;;;;;;;4.35;1.42;;;29.70;42.60;;;;;;6225603;28;20396;-75
2021/07/31 15:15:20;;;;;;;4.80;1.70;;;29.60;42.10;;;;;;6225462;28;20034;-76
2021/07/31 15:18:21;;;;;;;3.65;1.88;;;29.60;42.40;;;;;;6224611;28;20104;-75
2021/07/31 15:21:22;;;;;;;6.82;1.55;;;29.60;42.60;;;;;;6224928;28;20048;-75
2021/07/31 15:24:23;;;;;;;4.38;1.67;;;29.50;42.70;;;;;;6225440;28;20482;-75
2021/07/31 15:27:24;;;;;;;3.05;1.40;;;29.30;43.00;;;;;;6225747;28;20062;-75
2021/07/31 15:30:25;;;;;;;3.30;1.52;;;29.00;43.20;;;;;;6225827;28;20038;-75
2021/07/31 15:33:27;;;;;;;3.92;1.30;;;28.90;43.50;;;;;;6224622;28;20034;-75
2021/07/31 15:36:28;;;;;;;5.65;1.33;;;28.80;43.60;;;;;;6226635;28;20038;-75
2021/07/31 15:39:30;;;;;;;2.30;1.42;;;28.80;43.40;;;;;;6224476;28;20045;-75
2021/07/31 15:42:31;;;;;;;6.47;2.00;;;29.10;43.10;;;;;;6224389;28;20034;-75
2021/07/31 15:45:32;;;;;;;6.60;1.60;;;30.00;41.80;;;;;;6224861;28;20066;-76
2021/07/31 15:48:33;;;;;;;2.17;1.15;;;31.10;40.00;;;;;;6239996;28;20041;-74
2021/07/31 15:51:34;;;;;;;3.70;1.40;;;31.70;37.90;;;;;;6225166;28;20103;-74
2021/07/31 15:54:35;;;;;;;2.30;1.33;;;31.50;38.20;;;;;;6223022;28;20037;-74
2021/07/31 15:57:37;;;;;;;2.85;1.40;;;30.90;38.80;;;;;;6223786;28;20045;-74
2021/07/31 16:00:38;;;;;;;3.47;1.48;;;30.40;39.30;;;;;;6240322;28;20406;-74